Time;durP1;ratioP1;P1;durP2;ratioP2;P2;SDS_P1;SDS_P2;PMS_P1;PMS_P2;Temp;Humidity;BMP_temperature;BMP_pressure;BME280_temperature;BME280_humidity;BME280_pressure;Samples;Min_cycle;Max_cycle;Signal;HPM_P1;HPM_P2
2023/02/14 00:00:23;;;;;;;11.30;9.23;;;;;;;-0.59;100.00;97532.31;5050468;28;24512;-78
2023/02/14 00:02:49;;;;;;;10.38;8.75;;;;;;;-0.60;100.00;97533.13;5051868;28;24445;-77
2023/02/14 00:05:16;;;;;;;15.18;9.27;;;;;;;-0.75;100.00;97536.38;5049094;28;24459;-78
2023/02/14 00:07:43;;;;;;;10.00;8.73;;;;;;;-0.76;100.00;97540.63;5045952;28;24435;-76
2023/02/14 00:10:10;;;;;;;10.37;8.87;;;;;;;-0.75;100.00;97544.03;5053033;28;24435;-77
2023/02/14 00:12:37;;;;;;;12.32;8.68;;;;;;;-0.80;100.00;97543.97;5047749;28;24436;-77
2023/02/14 00:15:21;;;;;;;11.13;8.70;;;;;;;-0.80;100.00;97538.88;5050989;28;24420;-77
2023/02/14 00:17:49;;;;;;;10.25;8.57;;;;;;;-0.80;100.00;97536.34;5050985;28;24453;-77
2023/02/14 00:20:15;;;;;;;12.73;9.40;;;;;;;-0.86;100.00;97531.19;5049984;28;24526;-77
2023/02/14 00:22:42;;;;;;;10.07;8.73;;;;;;;-0.96;100.00;97526.88;5053444;28;24789;-77
2023/02/14 00:25:08;;;;;;;11.43;8.88;;;;;;;-1.01;100.00;97523.41;5050759;28;25028;-77
2023/02/14 00:27:35;;;;;;;9.95;8.68;;;;;;;-0.99;100.00;97527.69;5048834;28;24805;-77
2023/02/14 00:30:02;;;;;;;10.10;8.45;;;;;;;-1.01;100.00;97523.41;5051070;28;24435;-77
2023/02/14 00:32:28;;;;;;;10.85;8.75;;;;;;;-0.91;100.00;97520.13;5039472;28;24442;-77
2023/02/14 00:34:56;;;;;;;9.32;8.43;;;;;;;-0.94;100.00;97514.16;5047418;28;24438;-77
2023/02/14 00:37:23;;;;;;;12.10;8.98;;;;;;;-0.91;100.00;97517.56;5045962;28;24439;-77
2023/02/14 00:39:50;;;;;;;10.98;8.95;;;;;;;-0.94;100.00;97519.25;5042955;28;24832;-78
2023/02/14 00:42:16;;;;;;;12.77;8.73;;;;;;;-0.88;100.00;97516.78;5043552;28;24428;-77
2023/02/14 00:44:43;;;;;;;12.02;8.30;;;;;;;-0.91;100.00;97520.13;5045876;28;24443;-77
2023/02/14 00:47:09;;;;;;;10.70;8.48;;;;;;;-0.90;100.00;97519.28;5055827;28;24434;-78
2023/02/14 00:49:36;;;;;;;13.13;9.02;;;;;;;-0.86;100.00;97518.47;5040955;28;25015;-77
2023/02/14 00:52:04;;;;;;;9.65;8.52;;;;;;;-0.82;100.00;97506.63;5044320;28;25023;-77
2023/02/14 00:54:30;;;;;;;11.70;8.43;;;;;;;-0.85;100.00;97509.16;5057597;28;24435;-77
2023/02/14 00:56:56;;;;;;;10.43;8.52;;;;;;;-0.87;100.00;97506.59;5051920;28;24443;-77
2023/02/14 00:59:23;;;;;;;11.00;8.40;;;;;;;-0.81;100.00;97508.38;5049591;28;24439;-77
2023/02/14 01:01:49;;;;;;;11.70;8.65;;;;;;;-0.82;100.00;97510.03;5045033;28;24442;-76
2023/02/14 01:04:16;;;;;;;9.75;8.68;;;;;;;-0.80;100.00;97518.53;5050069;28;24435;-77
2023/02/14 01:06:42;;;;;;;10.43;8.65;;;;;;;-0.83;100.00;97515.97;5053038;28;24805;-77
2023/02/14 01:09:10;;;;;;;10.95;8.55;;;;;;;-0.92;100.00;97523.50;5047471;28;24442;-78
2023/02/14 01:11:38;;;;;;;9.45;8.05;;;;;;;-1.04;100.00;97524.25;5045921;28;24431;-77
2023/02/14 01:14:06;;;;;;;10.10;8.13;;;;;;;-1.15;100.00;97518.19;5044213;28;24551;-77
2023/02/14 01:16:32;;;;;;;11.53;8.00;;;;;;;-1.29;100.00;97525.66;5050474;28;24496;-75
2023/02/14 01:18:59;;;;;;;12.48;8.45;;;;;;;-1.29;100.00;97519.72;5051113;28;24442;-78
2023/02/14 01:21:29;;;;;;;10.25;8.18;;;;;;;-1.41;100.00;97515.31;5044736;28;24432;-78
2023/02/14 01:23:57;;;;;;;9.95;8.40;;;;;;;-1.31;100.00;97527.31;5039695;28;24443;-78
2023/02/14 01:26:26;;;;;;;14.70;9.70;;;;;;;-1.31;100.00;97529.00;5050487;28;24997;-78
2023/02/14 01:28:53;;;;;;;10.65;9.13;;;;;;;-1.49;100.00;97522.00;5050225;28;24782;-78
2023/02/14 01:31:22;;;;;;;11.32;8.98;;;;;;;-1.52;100.00;97520.28;5040857;28;25024;-78
2023/02/14 01:33:49;;;;;;;17.20;9.20;;;;;;;-1.62;100.00;97515.06;5038460;28;25009;-78
2023/02/14 01:36:18;;;;;;;16.00;9.32;;;;;;;-1.68;100.00;97515.81;5040240;28;24431;-78
2023/02/14 01:38:44;;;;;;;10.37;8.83;;;;;;;-1.58;100.00;97526.97;5039887;28;24459;-78
2023/02/14 01:41:12;;;;;;;9.98;8.38;;;;;;;-1.51;100.00;97526.22;5049418;28;24442;-78
2023/02/14 01:43:58;;;;;;;11.90;8.85;;;;;;;-1.42;100.00;97533.94;5046601;28;24806;-78
2023/02/14 01:46:25;;;;;;;11.23;9.38;;;;;;;-1.37;100.00;97522.16;5047796;28;24447;-78
2023/02/14 01:48:55;;;;;;;12.05;9.50;;;;;;;-1.68;100.00;97523.44;5046626;28;24486;-79
2023/02/14 01:51:22;;;;;;;12.05;8.95;;;;;;;-1.72;100.00;97525.09;5055561;28;24431;-81
2023/02/14 01:53:50;;;;;;;11.05;9.38;;;;;;;-1.64;100.00;97522.66;5055086;28;24852;-79
2023/02/14 01:56:21;;;;;;;10.57;8.70;;;;;;;-1.52;100.00;97537.19;5050123;28;24439;-80
2023/02/14 01:58:51;;;;;;;11.47;8.97;;;;;;;-1.45;100.00;97533.91;5051524;28;24435;-80
2023/02/14 02:01:20;;;;;;;11.93;8.63;;;;;;;-1.53;100.00;97531.25;5050434;28;24439;-78
2023/02/14 02:03:50;;;;;;;13.02;9.48;;;;;;;-1.51;100.00;97531.31;5051085;28;24438;-78
2023/02/14 02:06:21;;;;;;;11.87;9.40;;;;;;;-1.48;100.00;97534.75;5054798;28;24447;-78
2023/02/14 02:08:55;;;;;;;11.32;9.65;;;;;;;-1.61;100.00;97527.78;5052416;28;24454;-78
2023/02/14 02:11:22;;;;;;;14.85;10.63;;;;;;;-1.73;100.00;97530.16;5055841;28;24435;-80
2023/02/14 02:13:48;;;;;;;13.18;10.55;;;;;;;-1.53;100.00;97528.72;5049983;28;24438;-79
2023/02/14 02:16:52;;;;;;;11.50;9.85;;;;;;;-1.53;100.00;97525.34;5055865;28;24423;-79
2023/02/14 02:19:56;;;;;;;14.02;10.60;;;;;;;-1.68;100.00;97525.13;5017136;28;24848;-79
2023/02/14 02:22:46;;;;;;;11.57;10.02;;;;;;;-1.77;100.00;97526.72;5042979;28;25008;-79
2023/02/14 02:25:27;;;;;;;12.82;9.80;;;;;;;-1.77;100.00;97520.81;5050408;28;24463;-79
2023/02/14 02:28:20;;;;;;;13.02;10.13;;;;;;;-2.13;100.00;97519.44;5058288;28;24797;-77
2023/02/14 02:31:25;;;;;;;15.45;10.70;;;;;;;-2.06;100.00;97522.94;5046590;28;24443;-79
2023/02/14 02:34:18;;;;;;;11.48;9.98;;;;;;;-2.09;100.00;97516.09;5047373;28;24450;-78
2023/02/14 02:36:58;;;;;;;16.98;9.65;;;;;;;-2.25;100.00;97521.78;5047709;28;24446;-79
2023/02/14 02:39:49;;;;;;;11.52;9.25;;;;;;;-2.13;100.00;97511.81;5045257;28;24439;-79
2023/02/14 02:42:27;;;;;;;12.07;9.55;;;;;;;-2.05;100.00;97510.25;5047409;28;24446;-78
2023/02/14 02:45:02;;;;;;;10.68;9.05;;;;;;;-1.98;100.00;97509.50;5045041;28;25030;-79
2023/02/14 02:47:36;;;;;;;12.60;8.93;;;;;;;-1.90;100.00;97512.13;5047791;28;24432;-78
2023/02/14 02:53:07;;;;;;;20.60;12.70;;;;;;;-1.92;100.00;97511.28;5054021;28;24872;-76
2023/02/14 02:58:32;;;;;;;22.38;13.82;;;;;;;-1.86;100.00;97505.41;5051092;28;25087;-79
2023/02/14 03:01:00;;;;;;;20.90;13.02;;;;;;;-1.83;100.00;97510.53;5052684;28;24793;-79
2023/02/14 03:06:14;;;;;;;20.27;12.50;;;;;;;-1.84;100.00;97504.63;5048153;28;24462;-79
2023/02/14 03:08:42;;;;;;;11.93;10.13;;;;;;;-1.84;100.00;97498.69;5051659;28;24446;-78
2023/02/14 03:11:11;;;;;;;13.18;9.75;;;;;;;-1.95;100.00;97509.53;5057068;28;24431;-79
2023/02/14 03:14:08;;;;;;;12.02;8.88;;;;;;;-1.99;100.00;97509.50;5050422;28;24443;-79
2023/02/14 03:16:40;;;;;;;12.23;8.73;;;;;;;-1.96;100.00;97507.00;5054012;28;24446;-78
2023/02/14 03:22:34;;;;;;;10.65;9.02;;;;;;;-2.12;100.00;97493.22;5052140;28;24431;-79
2023/02/14 03:25:08;;;;;;;11.40;8.93;;;;;;;-2.09;100.00;97497.47;5049133;28;24500;-79
2023/02/14 03:27:40;;;;;;;15.40;8.70;;;;;;;-2.07;100.00;97496.69;5047290;28;24442;-79
2023/02/14 03:30:14;;;;;;;11.18;8.45;;;;;;;-2.05;100.00;97499.22;5053307;28;24446;-79
2023/02/14 03:32:43;;;;;;;10.70;8.20;;;;;;;-2.21;100.00;97504.09;5044219;28;24446;-79
2023/02/14 03:35:18;;;;;;;11.82;8.75;;;;;;;-2.29;100.00;97509.91;5051138;28;24443;-78
2023/02/14 03:37:53;;;;;;;11.03;8.27;;;;;;;-2.29;100.00;97505.66;5048668;28;24435;-79
2023/02/14 03:40:25;;;;;;;9.73;8.40;;;;;;;-2.17;100.00;97501.59;5054419;28;24431;-79
2023/02/14 03:42:57;;;;;;;10.00;7.90;;;;;;;-2.17;100.00;97501.59;5053417;28;24447;-78
2023/02/14 03:45:28;;;;;;;11.40;8.57;;;;;;;-2.15;100.00;97494.84;5047991;28;24791;-79
2023/02/14 03:47:59;;;;;;;12.73;9.20;;;;;;;-2.09;100.00;97502.56;5052174;28;24427;-79
2023/02/14 03:50:28;;;;;;;11.68;8.70;;;;;;;-2.16;100.00;97504.16;5056275;28;24439;-78
2023/02/14 03:52:57;;;;;;;10.35;8.57;;;;;;;-2.19;100.00;97499.03;5057103;28;24434;-76
2023/02/14 03:55:31;;;;;;;11.60;9.05;;;;;;;-2.20;100.00;97503.25;5054804;28;24981;-79
2023/02/14 03:58:06;;;;;;;11.32;8.98;;;;;;;-2.19;100.00;97504.09;5051818;28;24976;-79
2023/02/14 04:00:37;;;;;;;10.57;8.75;;;;;;;-2.19;100.00;97496.47;5056275;28;24484;-79
2023/02/14 04:03:10;;;;;;;12.52;9.45;;;;;;;-2.10;100.00;97499.19;5058282;28;24439;-78
2023/02/14 04:05:40;;;;;;;9.23;8.13;;;;;;;-2.06;100.00;97506.00;5045862;28;24550;-77
2023/02/14 04:08:07;;;;;;;10.75;8.23;;;;;;;-2.08;100.00;97499.19;5053547;28;24534;-79
2023/02/14 04:10:36;;;;;;;9.63;8.13;;;;;;;-2.10;100.00;97501.72;5065475;28;24489;-79
2023/02/14 04:13:02;;;;;;;10.70;8.93;;;;;;;-2.13;100.00;97505.88;5055158;28;24443;-79
2023/02/14 04:15:28;;;;;;;9.27;8.30;;;;;;;-2.17;100.00;97510.06;5057790;28;24809;-79
2023/02/14 04:20:39;;;;;;;11.00;9.10;;;;;;;-2.23;100.00;97508.28;5056554;28;24454;-78
2023/02/14 04:23:06;;;;;;;13.23;10.13;;;;;;;-2.16;100.00;97505.84;5053984;28;24435;-78
2023/02/14 04:25:32;;;;;;;15.27;10.63;;;;;;;-2.14;100.00;97506.72;5052535;28;24452;-79
2023/02/14 04:28:00;;;;;;;19.20;11.63;;;;;;;-2.14;100.00;97501.66;5054336;28;24443;-79
2023/02/14 04:30:27;;;;;;;15.80;11.35;;;;;;;-2.30;100.00;97496.34;5049340;28;24435;-79
2023/02/14 04:32:53;;;;;;;14.45;11.55;;;;;;;-2.47;100.00;97501.16;5050933;28;24438;-74
2023/02/14 04:35:20;;;;;;;17.25;11.85;;;;;;;-2.30;100.00;97493.81;5044794;28;24440;-79
2023/02/14 04:37:46;;;;;;;14.98;10.88;;;;;;;-2.29;100.00;97500.59;5043511;28;24443;-77
2023/02/14 04:40:15;;;;;;;13.23;10.10;;;;;;;-2.22;100.00;97497.31;5044556;28;24984;-77
2023/02/14 04:42:42;;;;;;;13.02;9.77;;;;;;;-2.22;100.00;97499.84;5050509;28;24517;-80
2023/02/14 04:45:10;;;;;;;12.05;10.10;;;;;;;-2.26;100.00;97507.41;5047029;28;24435;-80
2023/02/14 04:47:36;;;;;;;12.77;9.48;;;;;;;-2.39;100.00;97501.28;5048503;28;24474;-77
2023/02/14 04:50:04;;;;;;;12.73;9.60;;;;;;;-2.35;100.00;97508.09;5047713;28;24442;-77
2023/02/14 04:52:30;;;;;;;12.27;9.37;;;;;;;-2.50;100.00;97502.78;5044447;28;24432;-77
2023/02/14 04:54:57;;;;;;;13.23;9.38;;;;;;;-2.55;100.00;97505.25;5043041;28;24964;-77
2023/02/14 04:57:23;;;;;;;11.10;9.27;;;;;;;-2.62;100.00;97494.97;5038361;28;24528;-77
2023/02/14 04:59:50;;;;;;;12.90;9.52;;;;;;;-2.64;100.00;97494.94;5054410;28;24442;-78
2023/02/14 05:02:17;;;;;;;15.00;10.10;;;;;;;-2.64;100.00;97492.41;5053905;28;25035;-76
2023/02/14 05:04:44;;;;;;;12.38;9.07;;;;;;;-2.56;100.00;97490.88;5055493;28;24442;-77
2023/02/14 05:07:10;;;;;;;13.05;9.95;;;;;;;-2.50;100.00;97487.56;5047232;28;24470;-77
2023/02/14 05:09:37;;;;;;;10.20;8.95;;;;;;;-2.50;100.00;97490.09;5054778;28;24435;-77
2023/02/14 05:12:03;;;;;;;9.60;8.60;;;;;;;-2.47;100.00;97493.53;5047667;28;24450;-78
2023/02/14 05:14:30;;;;;;;11.17;8.60;;;;;;;-2.47;100.00;97483.41;5048174;28;24442;-77
2023/02/14 05:16:56;;;;;;;10.77;8.48;;;;;;;-2.45;100.00;97484.28;5062992;28;24442;-75
2023/02/14 05:19:24;;;;;;;10.98;8.75;;;;;;;-2.47;100.00;97482.53;5062434;28;24435;-77
2023/02/14 05:21:51;;;;;;;11.43;9.00;;;;;;;-2.46;100.00;97484.25;5062696;28;24450;-76
2023/02/14 05:24:17;;;;;;;11.25;9.38;;;;;;;-2.48;100.00;97488.47;5049411;28;24423;-78
2023/02/14 05:26:44;;;;;;;11.43;9.20;;;;;;;-2.48;100.00;97486.78;5057003;28;24455;-78
2023/02/14 05:29:10;;;;;;;12.68;8.85;;;;;;;-2.55;100.00;97490.03;5056982;28;24442;-78
2023/02/14 05:31:37;;;;;;;13.52;8.57;;;;;;;-2.60;100.00;97489.09;5048764;28;24438;-76
2023/02/14 05:34:03;;;;;;;11.73;8.03;;;;;;;-2.64;100.00;97491.56;5039500;28;24442;-77
2023/02/14 05:36:31;;;;;;;9.85;8.55;;;;;;;-2.68;100.00;97488.13;5051778;28;24440;-77
2023/02/14 05:38:58;;;;;;;10.40;8.73;;;;;;;-2.68;100.00;97485.56;5042405;28;25011;-77
2023/02/14 05:41:24;;;;;;;14.45;8.80;;;;;;;-2.65;100.00;97488.16;5056381;28;24481;-77
2023/02/14 05:43:51;;;;;;;14.18;9.55;;;;;;;-2.57;100.00;97488.28;5044251;28;24442;-78
2023/02/14 05:46:17;;;;;;;10.52;8.38;;;;;;;-2.68;100.00;97490.66;5055562;28;24785;-76
2023/02/14 05:48:44;;;;;;;11.15;8.43;;;;;;;-2.79;100.00;97485.41;5049325;28;24435;-77
2023/02/14 05:51:11;;;;;;;9.25;8.25;;;;;;;-2.80;100.00;97491.31;5044892;28;24439;-77
2023/02/14 05:53:39;;;;;;;14.50;9.48;;;;;;;-2.96;100.00;97491.88;5053278;28;24435;-77
2023/02/14 05:56:06;;;;;;;14.30;9.98;;;;;;;-2.97;100.00;97503.66;5051294;28;24447;-77
2023/02/14 05:58:33;;;;;;;11.45;9.27;;;;;;;-2.79;100.00;97495.53;5047041;28;24442;-76
2023/02/14 06:00:59;;;;;;;12.50;9.77;;;;;;;-2.79;100.00;97495.53;5038639;28;24442;-77
2023/02/14 06:03:26;;;;;;;16.45;9.90;;;;;;;-2.88;100.00;97505.53;5041597;28;24438;-77
2023/02/14 06:05:52;;;;;;;16.00;9.48;;;;;;;-2.86;100.00;97500.47;5052662;28;24820;-77
2023/02/14 06:08:19;;;;;;;15.48;10.25;;;;;;;-2.83;100.00;97503.91;5049248;28;24451;-76
2023/02/14 06:10:47;;;;;;;16.63;11.23;;;;;;;-2.81;100.00;97509.88;5046874;28;24442;-76
2023/02/14 06:13:13;;;;;;;18.98;13.30;;;;;;;-2.66;100.00;97506.75;5043380;28;24439;-76
2023/02/14 06:15:40;;;;;;;21.67;13.18;;;;;;;-2.76;100.00;97503.22;5047632;28;24439;-76
2023/02/14 06:18:07;;;;;;;17.33;12.43;;;;;;;-2.76;100.00;97505.75;5048333;28;24442;-75
2023/02/14 06:20:33;;;;;;;18.77;12.98;;;;;;;-2.80;100.00;97509.06;5042919;28;24447;-76
2023/02/14 06:23:00;;;;;;;17.98;12.88;;;;;;;-2.79;100.00;97504.84;5045936;28;24447;-76
2023/02/14 06:25:26;;;;;;;20.08;14.57;;;;;;;-2.75;100.00;97520.13;5043919;28;24702;-76
2023/02/14 06:27:57;;;;;;;19.07;13.87;;;;;;;-3.03;100.00;97515.41;5042203;28;24455;-75
2023/02/14 06:30:24;;;;;;;23.73;14.27;;;;;;;-3.17;100.00;97515.16;5037942;28;24439;-78
2023/02/14 06:32:50;;;;;;;25.65;14.30;;;;;;;-3.39;100.00;97508.81;5042478;28;24445;-76
2023/02/14 06:35:17;;;;;;;19.37;13.73;;;;;;;-3.38;100.00;97513.03;5045349;28;24489;-76
2023/02/14 06:37:44;;;;;;;16.98;11.70;;;;;;;-3.22;100.00;97520.13;5044622;28;24466;-75
2023/02/14 06:40:12;;;;;;;21.13;11.93;;;;;;;-3.09;100.00;97517.81;5048574;28;24926;-76
2023/02/14 06:42:38;;;;;;;18.80;10.20;;;;;;;-3.10;100.00;97522.03;5046934;28;25004;-76
2023/02/14 06:45:07;;;;;;;11.98;9.80;;;;;;;-3.00;100.00;97520.53;5043068;28;24439;-75
2023/02/14 06:47:34;;;;;;;9.45;8.45;;;;;;;-2.93;100.00;97525.75;5047006;28;24459;-77
2023/02/14 06:50:00;;;;;;;14.05;10.00;;;;;;;-2.85;100.00;97523.34;5044775;28;24835;-77
2023/02/14 06:52:27;;;;;;;11.75;9.85;;;;;;;-2.85;100.00;97519.97;5045803;28;24439;-76
2023/02/14 06:54:53;;;;;;;12.98;9.07;;;;;;;-3.10;100.00;97521.19;5042102;28;24447;-77
2023/02/14 06:57:20;;;;;;;12.83;10.20;;;;;;;-3.30;100.00;97521.66;5049676;28;24524;-76
2023/02/14 06:59:46;;;;;;;10.57;9.38;;;;;;;-3.34;100.00;97517.34;5046237;28;24434;-78
2023/02/14 07:02:16;;;;;;;13.95;9.50;;;;;;;-3.34;100.00;97521.56;5053568;28;24450;-77
2023/02/14 07:04:43;;;;;;;12.23;9.35;;;;;;;-3.25;100.00;97519.22;5066792;28;24436;-79
2023/02/14 07:07:09;;;;;;;12.13;9.02;;;;;;;-3.04;100.00;97517.09;5054183;28;24465;-79
2023/02/14 07:09:36;;;;;;;10.07;8.95;;;;;;;-2.89;100.00;97516.50;5052976;28;24438;-78
2023/02/14 07:12:02;;;;;;;10.43;9.30;;;;;;;-2.79;100.00;97512.44;5045580;28;24995;-76
2023/02/14 07:14:29;;;;;;;15.57;8.97;;;;;;;-2.69;100.00;97510.09;5043256;28;24431;-80
2023/02/14 07:16:55;;;;;;;15.20;8.88;;;;;;;-2.57;100.00;97506.03;5050864;28;24996;-79
2023/02/14 07:19:23;;;;;;;12.52;9.20;;;;;;;-2.41;100.00;97512.22;5048647;28;24443;-77
2023/02/14 07:21:49;;;;;;;11.02;9.05;;;;;;;-2.24;100.00;97513.34;5054099;28;25105;-77
2023/02/14 07:24:16;;;;;;;12.87;9.13;;;;;;;-2.09;100.00;97521.19;5042159;28;25020;-76
2023/02/14 07:26:42;;;;;;;10.63;8.68;;;;;;;-1.91;100.00;97512.13;5045631;28;24459;-72
2023/02/14 07:29:09;;;;;;;12.00;9.95;;;;;;;-1.63;100.00;97518.41;5041162;28;24431;-78
2023/02/14 07:31:35;;;;;;;14.23;10.50;;;;;;;-1.51;100.00;97510.97;5052428;28;24985;-79
2023/02/14 07:34:02;;;;;;;14.10;10.15;;;;;;;-1.33;100.00;97510.34;5054497;28;24797;-78
2023/02/14 07:36:30;;;;;;;13.02;10.23;;;;;;;-1.10;100.00;97513.16;5057533;28;24428;-78
2023/02/14 07:38:56;;;;;;;11.35;9.45;;;;;;;-0.82;100.00;97511.72;5056163;28;24438;-78
2023/02/14 07:41:23;;;;;;;9.23;8.30;;;;;;;-0.60;100.00;97506.00;5055869;28;24436;-78
2023/02/14 07:43:49;;;;;;;10.57;8.95;;;;;;;-0.32;100.00;97501.16;5055913;28;24434;-78
2023/02/14 07:46:17;;;;;;;11.27;8.38;;;;;;;-0.12;100.00;97498.72;5057494;28;24447;-81
2023/02/14 07:48:43;;;;;;;8.43;7.50;;;;;;;0.11;100.00;97501.41;5050979;28;24436;-75
2023/02/14 07:51:10;;;;;;;10.65;7.60;;;;;;;0.27;100.00;97502.38;5049940;28;24967;-78
2023/02/14 07:53:37;;;;;;;9.40;7.85;;;;;;;0.28;100.00;97504.06;5052845;28;24996;-75
2023/02/14 07:56:04;;;;;;;10.40;7.32;;;;;;;0.05;100.00;97502.25;5051143;28;24443;-77
2023/02/14 07:58:31;;;;;;;9.00;7.23;;;;;;;0.03;100.00;97497.97;5052260;28;24462;-79
2023/02/14 08:00:57;;;;;;;8.35;7.43;;;;;;;0.26;100.00;97501.53;5053815;28;24454;-77
2023/02/14 08:03:23;;;;;;;8.15;7.00;;;;;;;0.20;100.00;97501.50;5050448;28;24447;-75
2023/02/14 08:05:55;;;;;;;8.07;6.57;;;;;;;0.49;100.00;97501.63;5053443;28;24446;-78
2023/02/14 08:08:51;;;;;;;10.73;7.47;;;;;;;0.80;100.00;97499.19;5053654;28;24535;-79
2023/02/14 08:14:11;;;;;;;7.65;6.68;;;;;;;1.30;100.00;97489.13;5038873;28;25032;-77
2023/02/14 08:16:38;;;;;;;7.85;7.05;;;;;;;1.38;100.00;97492.53;5045907;28;24447;-76
2023/02/14 08:19:05;;;;;;;7.85;6.55;;;;;;;1.42;100.00;97494.22;5049823;28;24439;-78
2023/02/14 08:21:32;;;;;;;8.70;6.53;;;;;;;1.49;100.00;97484.88;5055560;28;24459;-81
2023/02/14 08:23:58;;;;;;;7.50;6.63;;;;;;;1.66;100.00;97487.41;5055407;28;24505;-79
2023/02/14 08:26:26;;;;;;;8.80;6.40;;;;;;;1.72;100.00;97484.03;5050012;28;24446;-79
2023/02/14 08:28:53;;;;;;;7.88;5.72;;;;;;;2.13;100.00;97487.38;5065493;28;24435;-78
2023/02/14 08:31:24;;;;;;;9.50;7.72;;;;;;;2.43;100.00;97486.44;5052902;28;24439;-79
2023/02/14 08:33:51;;;;;;;10.57;8.00;;;;;;;2.59;100.00;97491.50;5054042;28;24493;-78
2023/02/14 08:36:17;;;;;;;10.55;9.27;;;;;;;2.88;100.00;97488.81;5050742;28;24438;-77
2023/02/14 08:38:46;;;;;;;9.98;8.05;;;;;;;2.82;100.00;97487.16;5039461;28;24435;-76
2023/02/14 08:41:13;;;;;;;10.60;8.55;;;;;;;2.94;100.00;97490.50;5043037;28;24541;-77
2023/02/14 08:43:41;;;;;;;8.43;7.07;;;;;;;2.79;100.00;97476.91;5053767;28;24431;-77
2023/02/14 08:46:07;;;;;;;8.65;6.18;;;;;;;3.03;100.00;97486.16;5045399;28;24821;-78
2023/02/14 08:54:25;;;;;;;11.30;7.43;;;;;;;2.48;100.00;97488.13;5049384;28;24439;-79
2023/02/14 08:56:51;;;;;;;8.38;7.32;;;;;;;2.57;100.00;97480.44;5045175;28;24445;-77
2023/02/14 08:59:51;;;;;;;8.40;7.07;;;;;;;2.06;100.00;97485.69;5059801;28;24431;-77
2023/02/14 09:06:04;;;;;;;10.20;8.30;;;;;;;1.81;100.00;97486.56;5008329;28;24440;-77
2023/02/14 09:08:53;;;;;;;9.73;7.63;;;;;;;1.93;100.00;97484.00;5042477;28;24451;-79
2023/02/14 09:11:23;;;;;;;10.95;7.57;;;;;;;2.20;100.00;97487.38;5053610;28;24442;-80
2023/02/14 09:13:52;;;;;;;10.32;8.43;;;;;;;2.38;100.00;97484.75;5059555;28;24760;-78
2023/02/14 09:16:21;;;;;;;9.73;8.20;;;;;;;2.51;100.00;97483.00;5061900;28;24465;-77
2023/02/14 09:18:48;;;;;;;10.80;8.38;;;;;;;2.52;100.00;97484.69;5053020;28;25000;-77
2023/02/14 09:21:17;;;;;;;10.43;8.45;;;;;;;2.46;100.00;97477.91;5048273;28;24454;-75
2023/02/14 09:23:43;;;;;;;11.63;8.77;;;;;;;2.33;100.00;97476.22;5066053;28;24438;-79
2023/02/14 09:26:18;;;;;;;10.93;9.02;;;;;;;2.40;100.00;97478.75;5053888;28;25007;-77
2023/02/14 09:31:54;;;;;;;10.77;8.40;;;;;;;2.67;100.00;97482.94;5049541;28;24527;-78
2023/02/14 09:34:51;;;;;;;9.75;7.55;;;;;;;3.08;100.00;97471.66;5048245;28;24435;-80
2023/02/14 09:37:49;;;;;;;11.85;8.13;;;;;;;3.02;100.00;97468.28;5048198;28;24446;-78
2023/02/14 09:54:27;;;;;;;11.10;8.15;;;;;;;4.17;100.00;97457.94;4948010;28;24528;-76
2023/02/14 10:11:08;;;;;;;10.15;7.35;;;;;;;4.88;100.00;97428.84;4887638;29;24516;-76
2023/02/14 10:17:29;;;;;;;8.77;7.70;;;;;;;5.30;100.00;97433.38;4995678;28;24481;-76
2023/02/14 10:20:38;;;;;;;9.93;8.23;;;;;;;5.66;100.00;97437.94;5050843;28;24445;-77
2023/02/14 10:23:34;;;;;;;11.20;7.03;;;;;;;6.17;100.00;97436.19;5051650;28;24443;-77
2023/02/14 10:26:03;;;;;;;10.77;8.52;;;;;;;6.55;100.00;97437.19;5005443;28;24446;-74
2023/02/14 10:28:33;;;;;;;10.95;8.25;;;;;;;6.72;100.00;97421.41;5040732;28;24535;-74
2023/02/14 10:31:18;;;;;;;9.50;7.70;;;;;;;6.71;100.00;97425.69;5042491;28;21389;-74
2023/02/14 10:33:52;;;;;;;8.53;6.90;;;;;;;6.78;100.00;97422.09;5045382;28;24443;-74
2023/02/14 10:36:33;;;;;;;8.63;6.93;;;;;;;6.90;100.00;97421.00;5045666;28;20679;-74
2023/02/14 10:39:08;;;;;;;8.45;7.55;;;;;;;6.85;100.00;97414.25;5039319;28;20698;-76
2023/02/14 10:41:47;;;;;;;8.30;7.22;;;;;;;6.96;100.00;97414.84;5044687;28;24443;-76
2023/02/14 10:44:26;;;;;;;8.50;7.47;;;;;;;6.89;100.00;97416.72;5048556;28;24474;-73
2023/02/14 10:46:58;;;;;;;8.00;7.00;;;;;;;7.12;100.00;97411.06;5052794;28;20813;-74
2023/02/14 10:49:46;;;;;;;9.15;7.88;;;;;;;6.85;100.00;97409.94;5045944;28;20699;-75
2023/02/14 10:52:20;;;;;;;9.65;6.82;;;;;;;6.99;100.00;97400.19;5041525;28;20666;-75
2023/02/14 10:54:55;;;;;;;9.82;7.88;;;;;;;7.01;100.00;97400.16;5038093;28;20728;-75
2023/02/14 10:57:26;;;;;;;10.27;7.00;;;;;;;7.16;100.00;97397.22;5045483;28;21060;-76
2023/02/14 10:59:56;;;;;;;9.70;7.68;;;;;;;7.27;100.00;97402.13;5050406;28;21247;-75
2023/02/14 11:02:26;;;;;;;11.38;7.55;;;;;;;7.26;100.00;97395.25;5053175;28;20737;-75
2023/02/14 11:04:53;;;;;;;9.07;7.38;;;;;;;7.37;100.00;97389.84;5056039;28;20728;-76
2023/02/14 11:07:21;;;;;;;14.38;7.70;;;;;;;7.40;100.00;97388.06;5045676;28;20777;-76
2023/02/14 11:09:49;;;;;;;7.97;7.07;;;;;;;7.37;100.00;97388.13;5051163;28;20791;-75
2023/02/14 11:12:32;;;;;;;9.57;7.63;;;;;;;7.37;100.00;97384.69;5047047;28;24432;-76
2023/02/14 11:15:10;;;;;;;11.18;7.57;;;;;;;7.60;100.00;97384.13;5045384;28;20812;-76
2023/02/14 11:17:36;;;;;;;10.07;7.05;;;;;;;7.96;100.00;97374.59;5037600;28;20656;-76
2023/02/14 11:20:22;;;;;;;10.15;7.70;;;;;;;8.15;100.00;97373.19;5047417;28;24431;-76
2023/02/14 11:22:49;;;;;;;9.98;7.55;;;;;;;8.06;100.00;97364.88;5040964;28;24431;-77
2023/02/14 11:25:22;;;;;;;10.60;7.40;;;;;;;8.18;100.00;97367.13;5046090;28;24795;-76
2023/02/14 11:27:51;;;;;;;14.43;8.40;;;;;;;8.31;100.00;97359.91;5037393;28;20799;-76
2023/02/14 11:30:22;;;;;;;11.53;7.37;;;;;;;8.37;100.00;97357.13;5038313;28;20870;-77
2023/02/14 11:32:54;;;;;;;11.77;8.35;;;;;;;8.30;100.00;97359.03;5035771;28;24432;-76
2023/02/14 11:35:25;;;;;;;11.70;8.88;;;;;;;8.39;100.00;97353.66;5037664;28;24455;-76
2023/02/14 11:37:54;;;;;;;12.90;8.90;;;;;;;8.26;100.00;97352.25;5042705;28;24856;-76
2023/02/14 11:40:28;;;;;;;12.65;8.38;;;;;;;8.27;100.00;97347.94;5037430;28;20783;-77
2023/02/14 11:42:55;;;;;;;9.57;7.90;;;;;;;8.21;100.00;97339.50;5049123;28;24431;-77
2023/02/14 11:45:40;;;;;;;10.83;7.57;;;;;;;8.27;100.00;97335.91;5038106;28;24519;-77
2023/02/14 11:48:15;;;;;;;11.10;7.93;;;;;;;8.31;100.00;97339.25;5050245;28;25019;-76
2023/02/14 11:50:44;;;;;;;10.07;8.32;;;;;;;8.31;100.00;97334.09;5047645;28;25000;-76
2023/02/14 11:53:12;;;;;;;10.75;7.68;;;;;;;8.37;100.00;97344.22;5050303;28;25808;-77
2023/02/14 11:55:41;;;;;;;10.15;7.25;;;;;;;8.47;100.00;97338.78;5046668;28;24458;-78
2023/02/14 11:58:18;;;;;;;7.55;6.55;;;;;;;8.55;100.00;97345.44;5049503;28;24432;-78
2023/02/14 12:00:51;;;;;;;8.18;6.78;;;;;;;8.63;100.00;97330.56;5050880;28;24435;-78
2023/02/14 12:03:19;;;;;;;10.38;7.75;;;;;;;8.68;100.00;97329.53;5051853;28;24438;-80
2023/02/14 12:05:49;;;;;;;7.55;6.28;;;;;;;8.62;100.00;97327.13;5044683;28;24447;-78
2023/02/14 12:08:24;;;;;;;10.50;7.60;;;;;;;8.66;100.00;97320.16;5047957;28;24471;-79
2023/02/14 12:11:03;;;;;;;8.60;7.47;;;;;;;8.73;100.00;97322.50;5048181;28;24443;-78
2023/02/14 12:13:30;;;;;;;11.25;8.75;;;;;;;9.69;100.00;97325.44;5049881;28;24439;-78
2023/02/14 12:15:58;;;;;;;10.70;7.90;;;;;;;9.95;99.90;97316.75;5047946;28;24438;-76
2023/02/14 12:18:42;;;;;;;11.68;9.75;;;;;;;10.53;96.29;97313.78;5054740;28;24442;-78
2023/02/14 12:21:45;;;;;;;13.60;10.10;;;;;;;10.80;97.94;97315.31;5051111;28;24459;-78
2023/02/14 12:24:20;;;;;;;14.15;10.15;;;;;;;10.85;94.37;97318.56;5043507;28;24454;-79
2023/02/14 12:26:55;;;;;;;13.95;9.45;;;;;;;10.87;93.07;97314.19;5050861;28;24435;-78
2023/02/14 12:29:26;;;;;;;13.75;9.80;;;;;;;10.90;95.29;97315.78;5054273;28;24459;-79
2023/02/14 12:31:59;;;;;;;10.57;9.48;;;;;;;10.97;93.53;97311.22;5046672;28;24513;-79
2023/02/14 12:34:25;;;;;;;14.15;10.30;;;;;;;10.76;93.48;97302.56;5052843;28;24435;-79
2023/02/14 12:37:07;;;;;;;16.95;9.73;;;;;;;10.49;90.01;97310.47;5046920;28;24435;-80